Terminal Aerodrome Forecast
Issued by NWS

Home | Current Version | Previous Version | Graphics & Text | Print | Product List | Glossary On
Versions: 1 2 3 4 5 6 7 8 9 10 11 12 13 14 15 16 17 18 19 20
998
FTUS42 KMHX 031856 AAA
TAFOAJ
TAF AMD
KOAJ 031856Z 0319/0418 18015G25KT P6SM VCSH BKN025
      TEMPO 0321/0324 5SM SHRA BR BKN015
     FM040000 18012G20KT 4SM SHRA BR VCTS OVC020CB
     FM040600 20012KT 4SM RA BR SCT007 OVC012
     FM041200 22008KT 4SM -RA BR BKN007
      AMD LTD TO CLD VIS AND WIND=

USA.gov is the U.S. government's official web portal to all federal, state and local government web resources and services.